Alaskan Navigator — WDC6644 — position and weather

sailwx.info

Track history (hours):
 
Tides and Currents Weather Stations Pressure Air Temp Water Temp Dewpoint Dewpoint Depression Visibility Wind Speed Wind Dir Waves Ship Positions

Alaskan Navigator

Owner: ALASKA TANKER COMPANY, LLC, Beaverton, OR. More information available from US FCC via Universal Licensing System and Coast Guard Vessel Documentation Center.

Last reported at 2018-Jul-18 07:48 UTC. Time now 2018-Jul-18 10:13 UTC.
Position N 39°59' W 125°38'.

Type: Ship. MMSI: 367688000.

Date/timePositionNaut miles runAvg speedWind from/ knotsBaromVisibWave heightAir tempDewpointWater temp
2018-Jul-18 07:48N 39°59' W 125°38'412.7
2018-Jul-18 07:30N 39°56' W 125°36'612.5
2018-Jul-18 07:00N 39°50' W 125°33'612.2
2018-Jul-18 06:30N 39°44' W 125°30'612.2
2018-Jul-18 06:00N 39°39' W 125°27'612.1
2018-Jul-18 05:30N 39°33' W 125°24'611.5
2018-Jul-18 05:00N 39°28' W 125°21'511.0
2018-Jul-18 04:30N 39°23' W 125°18'611.2
2018-Jul-18 04:00N 39°18' W 125°15'611.2
2018-Jul-18 03:30N 39°12' W 125°13'510.9
2018-Jul-18 03:00N 39°07' W 125°10'611.1
2018-Jul-18 02:30N 39°02' W 125°07'510.9
2018-Jul-18 02:00N 38°57' W 125°04'510.9
2018-Jul-18 01:30N 38°52' W 125°02'611.0
2018-Jul-18 01:00N 38°47' W 124°59'611.1
2018-Jul-18 00:30N 38°42' W 124°56'611.2
2018-Jul-18 00:00N 38°37' W 124°53'611.4
2018-Jul-17 23:30N 38°31' W 124°51'612.4
2018-Jul-17 23:00N 38°26' W 124°47'713.6
2018-Jul-17 22:30N 38°20' W 124°44'713.8
2018-Jul-17 22:00N 38°13' W 124°41'713.9
2018-Jul-17 21:30N 38°07' W 124°37'814.2
2018-Jul-17 20:58N 37°60' W 124°33'614.1
2018-Jul-17 20:30N 37°54' W 124°30'713.7
2018-Jul-17 20:01N 37°47' W 124°27'713.5
2018-Jul-17 19:30N 37°42' W 124°22'713.5
2018-Jul-17 19:00N 37°37' W 124°17'611.3
2018-Jul-17 18:31N 37°32' W 124°12'510.4
2018-Jul-17 18:01N 37°27' W 124°10'510.5
2018-Jul-17 17:30N 37°23' W 124°07'611.7
2018-Jul-17 17:00N 37°18' W 124°02'714.1
2018-Jul-17 16:31N 37°13' W 123°56'611.9
2018-Jul-17 16:00N 37°11' W 123°49'714.8
2018-Jul-17 15:30N 37°15' W 123°41'715.0
2018-Jul-17 15:00N 37°19' W 123°33'714.7
2018-Jul-17 14:31N 37°23' W 123°25'714.3
2018-Jul-17 14:00N 37°27' W 123°18'714.1
2018-Jul-17 13:30N 37°31' W 123°10'612.6
2018-Jul-17 13:00N 37°34' W 123°04'611.7
2018-Jul-17 12:30N 37°37' W 122°58'611.7
2018-Jul-17 12:00N 37°41' W 122°51'611.8
2018-Jul-17 11:30N 37°44' W 122°45'510.2
2018-Jul-17 11:00N 37°46' W 122°39'4 8.6
2018-Jul-17 10:30N 37°47' W 122°34'510.4
2018-Jul-17 10:00N 37°50' W 122°28'4 8.9
2018-Jul-17 09:30N 37°53' W 122°25'2 4.4
2018-Jul-17 09:00N 37°55' W 122°25'0 0.2
2018-Jul-17 08:25N 37°56' W 122°25'0 0.0
2018-Jul-17 07:58N 37°56' W 122°25'0 0.0
2018-Jul-17 07:28N 37°56' W 122°25'0 0.0
2018-Jul-17 06:58N 37°56' W 122°25'0 0.0
2018-Jul-17 06:28N 37°56' W 122°25'0 0.0
2018-Jul-17 05:58N 37°56' W 122°25'0 0.0
2018-Jul-17 05:31N 37°56' W 122°25'0 0.0
2018-Jul-17 04:58N 37°56' W 122°25'0 0.0
2018-Jul-17 04:28N 37°56' W 122°25'0 0.0
2018-Jul-17 03:58N 37°56' W 122°25'0 0.0
2018-Jul-17 03:28N 37°56' W 122°25'0 0.0
2018-Jul-17 02:58N 37°56' W 122°25'0 0.0
2018-Jul-17 02:28N 37°56' W 122°25'0 0.0
2018-Jul-17 01:58N 37°56' W 122°25'0 0.0
2018-Jul-17 01:28N 37°56' W 122°25'0 0.0
2018-Jul-17 00:58N 37°56' W 122°25'0 0.0
2018-Jul-17 00:28N 37°56' W 122°25'0 0.0
2018-Jul-16 23:25N 37°56' W 122°25'0 0.0
2018-Jul-16 22:58N 37°56' W 122°25'0 0.0
2018-Jul-16 22:28N 37°56' W 122°25'0 0.0
2018-Jul-16 21:58N 37°56' W 122°25'0 0.0
2018-Jul-16 21:28N 37°56' W 122°25'0 0.0
2018-Jul-16 20:58N 37°56' W 122°25'0 0.0
2018-Jul-16 20:28N 37°56' W 122°25'0 0.0
2018-Jul-16 19:58N 37°56' W 122°25'0 0.0
2018-Jul-16 19:28N 37°56' W 122°25'0 0.0
2018-Jul-16 18:58N 37°56' W 122°25'0 0.0
2018-Jul-16 18:28N 37°56' W 122°25'0 0.0
2018-Jul-16 17:58N 37°56' W 122°25'0 0.0
2018-Jul-16 17:28N 37°56' W 122°25'0 0.0
2018-Jul-16 16:58N 37°56' W 122°25'0 0.0
2018-Jul-16 16:28N 37°56' W 122°25'0 0.0
2018-Jul-16 15:58N 37°56' W 122°25'0 0.0
2018-Jul-16 15:28N 37°56' W 122°25'0 0.0
2018-Jul-16 14:58N 37°56' W 122°25'0 0.0
2018-Jul-16 14:28N 37°56' W 122°25'0 0.0
2018-Jul-16 13:58N 37°56' W 122°25'0 0.0
2018-Jul-16 13:28N 37°56' W 122°25'0 0.0
2018-Jul-16 12:58N 37°56' W 122°25'0 0.0
2018-Jul-16 12:28N 37°56' W 122°25'0 0.0
2018-Jul-16 12:00N 37°56' W 122°25'0 1.0
2018-Jul-16 11:30N 37°55' W 122°25'4 7.9
2018-Jul-16 11:00N 37°51' W 122°24'511.0
2018-Jul-16 10:31N 37°46' W 122°22'2 3.0
2018-Jul-16 09:59N 37°45' W 122°21'0 0.1
2018-Jul-16 09:29N 37°45' W 122°21'0 0.1
2018-Jul-16 08:59N 37°45' W 122°21'0 0.0
2018-Jul-16 08:29N 37°45' W 122°21'0 0.0
2018-Jul-16 07:59N 37°45' W 122°21'0 0.0
2018-Jul-16 07:29N 37°45' W 122°21'0 0.0
2018-Jul-16 06:59N 37°45' W 122°21'0 0.0
2018-Jul-16 06:29N 37°45' W 122°21'0 0.0
2018-Jul-16 05:59N 37°45' W 122°21'0 0.1
2018-Jul-16 05:29N 37°45' W 122°21'0 0.1
2018-Jul-16 04:59N 37°45' W 122°21'0 0.2
2018-Jul-16 04:29N 37°45' W 122°21'0 0.4
2018-Jul-16 03:59N 37°45' W 122°21'0 0.1
2018-Jul-16 03:29N 37°45' W 122°21'0 0.0
2018-Jul-16 02:59N 37°45' W 122°21'0 0.0
2018-Jul-16 02:29N 37°45' W 122°21'0 0.1
2018-Jul-16 01:59N 37°45' W 122°21'0 0.1
2018-Jul-16 01:29N 37°45' W 122°21'0 0.0
2018-Jul-16 00:59N 37°45' W 122°21'0 0.0
2018-Jul-16 00:29N 37°45' W 122°21'0 0.3
2018-Jul-15 23:59N 37°45' W 122°21'0 0.2
2018-Jul-15 23:29N 37°45' W 122°21'0 0.2
2018-Jul-15 22:59N 37°45' W 122°21'0 0.1
2018-Jul-15 22:29N 37°45' W 122°21'0 0.1
2018-Jul-15 21:59N 37°45' W 122°21'0 0.0
2018-Jul-15 21:29N 37°45' W 122°21'0 0.0
2018-Jul-15 20:59N 37°45' W 122°21'0 0.0
2018-Jul-15 20:29N 37°45' W 122°21'0 0.0
2018-Jul-15 19:59N 37°45' W 122°21'0 0.0
2018-Jul-15 19:29N 37°45' W 122°21'0 0.0
2018-Jul-15 18:59N 37°45' W 122°21'0 0.0
2018-Jul-15 18:29N 37°45' W 122°21'0 0.0
2018-Jul-15 17:59N 37°45' W 122°21'0 0.0
2018-Jul-15 17:29N 37°45' W 122°21'0 0.2
2018-Jul-15 16:59N 37°45' W 122°21'0 0.4
2018-Jul-15 16:29N 37°45' W 122°21'0 0.2
2018-Jul-15 15:59N 37°45' W 122°21'0 0.1
2018-Jul-15 15:29N 37°45' W 122°21'0 0.0
2018-Jul-15 14:59N 37°45' W 122°21'0 0.0
2018-Jul-15 14:29N 37°45' W 122°21'0 0.0
2018-Jul-15 13:59N 37°45' W 122°21'0 0.0
2018-Jul-15 13:29N 37°45' W 122°21'0 0.0
2018-Jul-15 12:59N 37°45' W 122°21'0 0.0
2018-Jul-15 12:29N 37°45' W 122°21'0 0.0
2018-Jul-15 11:59N 37°45' W 122°21'0 0.0
2018-Jul-15 11:29N 37°45' W 122°21'0 0.0
2018-Jul-15 10:59N 37°45' W 122°21'0 0.0
2018-Jul-15 10:29N 37°45' W 122°21'0 0.1
2018-Jul-15 09:59N 37°45' W 122°21'0 0.4
2018-Jul-15 09:29N 37°45' W 122°21'0 0.1
2018-Jul-15 08:59N 37°45' W 122°21'0 0.0
2018-Jul-15 08:29N 37°45' W 122°21'0 0.1
2018-Jul-15 07:59N 37°45' W 122°21'0 0.0
2018-Jul-15 07:29N 37°45' W 122°21'0 0.0
2018-Jul-15 06:59N 37°45' W 122°21'0 0.1
2018-Jul-15 06:29N 37°45' W 122°21'0 0.1
2018-Jul-15 05:56N 37°45' W 122°21'0 0.0
2018-Jul-15 05:29N 37°45' W 122°21'0 0.0
2018-Jul-15 04:59N 37°45' W 122°21'0 0.1
2018-Jul-15 04:29N 37°45' W 122°21'0 0.2
2018-Jul-15 03:59N 37°45' W 122°21'0 0.2
2018-Jul-15 03:29N 37°45' W 122°21'0 0.3
2018-Jul-15 02:59N 37°45' W 122°21'0 0.1
2018-Jul-15 02:29N 37°45' W 122°21'0 0.0
2018-Jul-15 01:59N 37°45' W 122°21'0 0.0
2018-Jul-15 01:29N 37°45' W 122°21'0 0.0
2018-Jul-15 00:59N 37°45' W 122°21'0 0.0
2018-Jul-15 00:29N 37°45' W 122°21'0 0.1
2018-Jul-14 23:59N 37°45' W 122°21'0 0.0
2018-Jul-14 23:29N 37°45' W 122°21'0 0.1
2018-Jul-14 22:59N 37°45' W 122°21'0 0.4
2018-Jul-14 22:29N 37°45' W 122°21'0 0.1
2018-Jul-14 21:59N 37°45' W 122°21'0 0.1
2018-Jul-14 21:29N 37°45' W 122°21'0 0.0
2018-Jul-14 20:59N 37°45' W 122°21'0 0.0
2018-Jul-14 20:29N 37°45' W 122°21'0 0.0
2018-Jul-14 19:59N 37°45' W 122°21'0 0.0
2018-Jul-14 19:29N 37°45' W 122°21'0 0.0
2018-Jul-14 18:59N 37°45' W 122°21'0 0.1
2018-Jul-14 18:30N 37°45' W 122°21'1 1.6
2018-Jul-14 18:00N 37°45' W 122°22'4 7.5
2018-Jul-14 17:30N 37°49' W 122°24'510.5
2018-Jul-14 17:00N 37°48' W 122°30'713.2
2018-Jul-14 16:30N 37°46' W 122°38'510.9
2018-Jul-14 16:00N 37°43' W 122°44'510.2
2018-Jul-14 15:30N 37°40' W 122°49'510.0
2018-Jul-14 15:00N 37°37' W 122°54'510.0
2018-Jul-14 14:30N 37°34' W 122°60'10 9.9
2018-Jul-14 13:30N 37°29' W 123°10'5 9.5
2018-Jul-14 13:00N 37°26' W 123°15'4 8.8
2018-Jul-14 12:30N 37°24' W 123°20'4 8.5
2018-Jul-14 12:00N 37°21' W 123°24'4 7.7
2018-Jul-14 11:30N 37°18' W 123°27'4 8.0
2018-Jul-14 11:00N 37°14' W 123°26'4 8.2
2018-Jul-14 10:30N 37°10' W 123°25'4 8.1
2018-Jul-14 10:00N 37°06' W 123°25'4 7.9
2018-Jul-14 09:30N 37°02' W 123°24'4 8.0
2018-Jul-14 09:00N 36°59' W 123°23'4 8.2
2018-Jul-14 08:30N 36°54' W 123°22'4 8.0
2018-Jul-14 08:00N 36°51' W 123°21'4 8.0
2018-Jul-14 07:30N 36°47' W 123°20'4 8.3
2018-Jul-14 07:00N 36°43' W 123°19'4 8.4
2018-Jul-14 06:30N 36°38' W 123°18'4 8.3
2018-Jul-14 06:00N 36°34' W 123°17'4 8.3
2018-Jul-14 05:30N 36°30' W 123°16'4 8.3
2018-Jul-14 05:00N 36°26' W 123°15'4 8.6
2018-Jul-14 04:30N 36°22' W 123°14'4 8.7
2018-Jul-14 04:00N 36°18' W 123°13'4 7.8
2018-Jul-14 03:30N 36°14' W 123°12'4 8.3
2018-Jul-14 03:00N 36°10' W 123°12'4 8.2
2018-Jul-14 02:30N 36°06' W 123°11'4 7.9
2018-Jul-14 02:00N 36°02' W 123°10'4 7.7
2018-Jul-14 01:30N 35°58' W 123°09'4 7.5
2018-Jul-14 01:00N 35°54' W 123°08'71497.1
2018-Jul-14 01:00N 35°48' W 123°06'3 6.5 300 / 81017.510.8 15.612.516.1
2018-Jul-14 00:30N 35°51' W 123°08'4 7.4
2018-Jul-14 00:00N 35°47' W 123°07'4 7.8
2018-Jul-13 23:30N 35°43' W 123°06'4 7.9
2018-Jul-13 23:00N 35°39' W 123°05'4 8.0
2018-Jul-13 22:30N 35°36' W 123°04'4 8.3
2018-Jul-13 22:00N 35°31' W 123°03'4 8.0
2018-Jul-13 21:30N 35°28' W 123°00'4 8.1
2018-Jul-13 21:00N 35°26' W 122°57'4 8.1
2018-Jul-13 20:30N 35°23' W 122°53'4 8.2
2018-Jul-13 20:00N 35°20' W 122°49'4 8.4
2018-Jul-13 19:30N 35°17' W 122°46'5 8.9
2018-Jul-13 19:00N 35°14' W 122°42'4 8.7
2018-Jul-13 18:30N 35°11' W 122°38'4 8.8
2018-Jul-13 18:00N 35°08' W 122°34'4 8.7
2018-Jul-13 17:30N 35°05' W 122°30'4 8.8
2018-Jul-13 17:00N 35°02' W 122°27'4 8.6
2018-Jul-13 16:30N 34°59' W 122°23'4 8.7
2018-Jul-13 16:00N 34°56' W 122°19'4 9.0
2018-Jul-13 15:30N 34°53' W 122°15'611.1
2018-Jul-13 15:00N 34°49' W 122°10'611.0
2018-Jul-13 14:30N 34°45' W 122°05'1110.7
2018-Jul-13 13:30N 34°38' W 121°56'510.6
2018-Jul-13 13:00N 34°34' W 121°51'5305.3
2018-Jul-13 13:00N 34°30' W 121°48'1 2.9 300 / 81016.910.8 15.013.916.7
2018-Jul-13 12:30N 34°30' W 121°46'510.8
2018-Jul-13 12:00N 34°27' W 121°42'510.6
2018-Jul-13 11:30N 34°23' W 121°37'510.6
2018-Jul-13 11:00N 34°19' W 121°32'510.6
2018-Jul-13 10:30N 34°16' W 121°28'510.6
2018-Jul-13 10:00N 34°12' W 121°23'510.5
2018-Jul-13 09:30N 34°08' W 121°18'510.3
2018-Jul-13 09:00N 34°05' W 121°14'510.5
2018-Jul-13 08:30N 34°01' W 121°09'510.7
2018-Jul-13 08:00N 33°58' W 121°05'510.7
2018-Jul-13 07:30N 33°54' W 120°60'610.9
2018-Jul-13 06:59N 33°50' W 120°55'510.8
2018-Jul-13 06:30N 33°46' W 120°50'510.8
2018-Jul-13 06:00N 33°43' W 120°46'510.8
2018-Jul-13 05:30N 33°42' W 120°39'510.9
2018-Jul-13 05:00N 33°42' W 120°33'510.8
2018-Jul-13 04:30N 33°42' W 120°26'611.4
2018-Jul-13 04:00N 33°42' W 120°19'610.9
2018-Jul-13 03:29N 33°42' W 120°13'610.7
2018-Jul-13 02:55N 33°42' W 120°05'411.1
2018-Jul-13 02:30N 33°42' W 119°60'510.7
2018-Jul-13 02:00N 33°42' W 119°53'510.4
2018-Jul-13 01:30N 33°42' W 119°47'510.4
2018-Jul-13 01:00N 33°42' W 119°41'4268.3
2018-Jul-13 01:00N 33°42' W 119°36'1 2.5 300 / 141013.8 18.316.519.4
2018-Jul-13 00:30N 33°42' W 119°35'510.8
2018-Jul-13 00:00N 33°42' W 119°28'510.6
2018-Jul-12 23:30N 33°42' W 119°22'611.0
2018-Jul-12 23:00N 33°42' W 119°15'611.0
2018-Jul-12 22:30N 33°41' W 119°09'510.8
2018-Jul-12 22:00N 33°41' W 119°02'510.6
2018-Jul-12 21:30N 33°40' W 118°56'610.6
2018-Jul-12 20:59N 33°40' W 118°49'511.0
2018-Jul-12 20:30N 33°40' W 118°43'510.9
2018-Jul-12 20:00N 33°40' W 118°36'510.9
2018-Jul-12 19:30N 33°40' W 118°30'611.1
2018-Jul-12 19:00N 33°39' W 118°23'611.0
2018-Jul-12 18:30N 33°38' W 118°17'5 9.3
2018-Jul-12 18:00N 33°40' W 118°12'3 6.9
2018-Jul-12 17:30N 33°44' W 118°12'1 1.8
2018-Jul-12 17:00N 33°44' W 118°13'0 0.1
2018-Jul-12 16:30N 33°44' W 118°13'0 0.0
2018-Jul-12 16:00N 33°44' W 118°13'0 0.0
2018-Jul-12 15:30N 33°44' W 118°13'0 0.1
2018-Jul-12 15:00N 33°44' W 118°13'0 0.1
2018-Jul-12 14:30N 33°44' W 118°13'0 0.1
2018-Jul-12 14:00N 33°44' W 118°13'0 0.0
2018-Jul-12 13:30N 33°44' W 118°13'0 0.1
2018-Jul-12 13:00N 33°44' W 118°13'0 0.0
2018-Jul-12 12:30N 33°44' W 118°13'0 0.0
2018-Jul-12 12:00N 33°44' W 118°13'0 0.1
2018-Jul-12 11:30N 33°44' W 118°13'0 0.0
2018-Jul-12 11:00N 33°44' W 118°13'0 0.1
2018-Jul-12 10:30N 33°44' W 118°13'0 0.1
2018-Jul-12 10:00N 33°44' W 118°13'0 0.0
2018-Jul-12 09:30N 33°44' W 118°13'0 0.0
2018-Jul-12 09:00N 33°44' W 118°13'0 0.0
2018-Jul-12 08:30N 33°44' W 118°13'0 0.0
2018-Jul-12 08:00N 33°44' W 118°13'0 0.0
2018-Jul-12 07:30N 33°44' W 118°13'0 0.0
2018-Jul-12 07:00N 33°44' W 118°13'0 0.0
2018-Jul-12 06:30N 33°44' W 118°13'0 0.0
2018-Jul-12 06:00N 33°44' W 118°13'0 0.1
2018-Jul-12 05:30N 33°44' W 118°13'0 0.0
2018-Jul-12 05:00N 33°44' W 118°13'0 0.0
2018-Jul-12 04:30N 33°44' W 118°13'0 0.0
2018-Jul-12 04:00N 33°44' W 118°13'0 0.0
2018-Jul-12 03:30N 33°44' W 118°13'0 0.0
2018-Jul-12 03:00N 33°44' W 118°13'0 0.0
2018-Jul-12 02:30N 33°44' W 118°13'0 0.0
2018-Jul-12 02:00N 33°44' W 118°13'0 0.0
2018-Jul-12 01:30N 33°44' W 118°13'0 0.1
2018-Jul-12 01:00N 33°44' W 118°13'0 0.0
2018-Jul-12 00:30N 33°44' W 118°13'0 0.0
2018-Jul-12 00:00N 33°44' W 118°13'0 0.0
2018-Jul-11 23:30N 33°44' W 118°13'0 0.0
2018-Jul-11 23:00N 33°44' W 118°13'0 0.0
2018-Jul-11 22:30N 33°44' W 118°13'0 0.1
2018-Jul-11 22:00N 33°44' W 118°13'0 0.0
2018-Jul-11 21:30N 33°44' W 118°13'0 0.0
2018-Jul-11 21:00N 33°44' W 118°13'0 0.0
2018-Jul-11 20:30N 33°44' W 118°13'0 0.0
2018-Jul-11 19:57N 33°44' W 118°13'0 0.1
2018-Jul-11 19:30N 33°44' W 118°13'0 0.1
2018-Jul-11 19:00N 33°44' W 118°13'0 0.1
2018-Jul-11 18:30N 33°44' W 118°13'0 0.1
2018-Jul-11 18:00N 33°44' W 118°13'0 0.1
2018-Jul-11 17:30N 33°44' W 118°13'0 0.1
2018-Jul-11 17:00N 33°44' W 118°13'0 0.0
2018-Jul-11 16:30N 33°44' W 118°13'0 0.1
2018-Jul-11 16:00N 33°44' W 118°13'0 0.0
2018-Jul-11 15:30N 33°44' W 118°13'0 0.0
2018-Jul-11 15:00N 33°44' W 118°13'0 0.0
2018-Jul-11 14:30N 33°44' W 118°13'0 0.0
2018-Jul-11 14:00N 33°44' W 118°13'0 0.1
2018-Jul-11 13:30N 33°44' W 118°13'0 0.0
2018-Jul-11 13:00N 33°44' W 118°13'0 0.0
2018-Jul-11 12:30N 33°44' W 118°13'0 0.0
2018-Jul-11 12:00N 33°44' W 118°13'0 0.0
2018-Jul-11 11:30N 33°44' W 118°13'0 0.0
2018-Jul-11 11:00N 33°44' W 118°13'0 0.0
2018-Jul-11 10:30N 33°44' W 118°13'0 0.0
2018-Jul-11 10:00N 33°44' W 118°13'0 0.0
2018-Jul-11 09:30N 33°44' W 118°13'0 0.0
2018-Jul-11 09:00N 33°44' W 118°13'0 0.1
2018-Jul-11 08:30N 33°44' W 118°13'0 0.0
2018-Jul-11 08:00N 33°44' W 118°13'0 0.1
2018-Jul-11 07:30N 33°44' W 118°13'0 0.0
2018-Jul-11 06:57N 33°44' W 118°13'0 0.0
2018-Jul-11 06:30N 33°44' W 118°13'0 0.0
2018-Jul-11 06:00N 33°44' W 118°13'0 0.0
2018-Jul-11 05:30N 33°44' W 118°13'0 0.0
2018-Jul-11 05:00N 33°44' W 118°13'0 0.0
2018-Jul-11 04:30N 33°44' W 118°13'0 0.0
2018-Jul-11 04:00N 33°44' W 118°13'0 0.0
2018-Jul-11 03:30N 33°44' W 118°13'0 0.0
2018-Jul-11 03:00N 33°44' W 118°13'0 0.1
2018-Jul-11 02:30N 33°44' W 118°13'0 0.1
2018-Jul-11 02:00N 33°44' W 118°13'0 0.0
2018-Jul-11 01:30N 33°44' W 118°13'0 0.1
2018-Jul-11 01:00N 33°44' W 118°13'0 0.0
2018-Jul-11 00:30N 33°44' W 118°13'0 0.0
2018-Jul-11 00:00N 33°44' W 118°13'0 0.0
2018-Jul-10 23:30N 33°44' W 118°13'0 0.0
2018-Jul-10 23:00N 33°44' W 118°13'0 0.0
2018-Jul-10 22:30N 33°44' W 118°13'0 0.0
2018-Jul-10 22:00N 33°44' W 118°13'0 0.0
2018-Jul-10 21:30N 33°44' W 118°13'0 0.0
2018-Jul-10 21:00N 33°44' W 118°13'0 0.0
2018-Jul-10 20:30N 33°44' W 118°13'0 0.0
2018-Jul-10 20:00N 33°44' W 118°13'0 0.1
2018-Jul-10 19:30N 33°44' W 118°13'0 0.0
2018-Jul-10 19:00N 33°44' W 118°13'0 0.0
2018-Jul-10 18:30N 33°44' W 118°13'0 0.0
2018-Jul-10 18:00N 33°44' W 118°13'0 0.1
2018-Jul-10 17:30N 33°44' W 118°13'0 0.0
2018-Jul-10 17:00N 33°44' W 118°13'0 0.0
2018-Jul-10 16:30N 33°44' W 118°13'0 0.0
2018-Jul-10 16:00N 33°44' W 118°13'0 0.0
2018-Jul-10 15:30N 33°44' W 118°13'0 0.0
2018-Jul-10 15:00N 33°44' W 118°13'0 0.0
2018-Jul-10 14:30N 33°44' W 118°13'0 0.0
2018-Jul-10 14:00N 33°44' W 118°13'0 0.0
2018-Jul-10 13:30N 33°44' W 118°13'0 0.0
2018-Jul-10 13:00N 33°44' W 118°13'0 0.1
2018-Jul-10 12:30N 33°44' W 118°13'0 0.0
2018-Jul-10 12:00N 33°44' W 118°13'0 0.0
2018-Jul-10 11:30N 33°44' W 118°13'0 0.0
2018-Jul-10 11:00N 33°44' W 118°13'0 0.0
2018-Jul-10 10:30N 33°44' W 118°13'0 0.0
2018-Jul-10 10:00N 33°44' W 118°13'0 0.0
2018-Jul-10 09:30N 33°44' W 118°13'0 0.0
2018-Jul-10 09:00N 33°44' W 118°13'0 0.0
2018-Jul-10 08:30N 33°44' W 118°13'0 0.0
2018-Jul-10 08:00N 33°44' W 118°13'0 0.0
2018-Jul-10 07:30N 33°44' W 118°13'0 0.0
2018-Jul-10 07:00N 33°44' W 118°13'0 0.1
2018-Jul-10 06:30N 33°44' W 118°13'0 0.0
2018-Jul-10 06:00N 33°44' W 118°13'0 0.0
2018-Jul-10 05:30N 33°44' W 118°13'0 0.1
2018-Jul-10 05:00N 33°44' W 118°13'0 0.0
2018-Jul-10 04:30N 33°44' W 118°13'0 0.5
2018-Jul-10 04:00N 33°44' W 118°13'1 2.0
2018-Jul-10 03:30N 33°45' W 118°13'0 0.6
2018-Jul-10 03:00N 33°45' W 118°13'0 0.0
2018-Jul-10 02:28N 33°45' W 118°13'0 0.0
2018-Jul-10 01:58N 33°45' W 118°13'0 0.0
2018-Jul-10 01:28N 33°45' W 118°13'0 0.0
2018-Jul-10 00:58N 33°45' W 118°13'0 0.0
2018-Jul-10 00:28N 33°45' W 118°13'0 0.0
2018-Jul-09 23:55N 33°45' W 118°13'0 0.0
2018-Jul-09 23:28N 33°45' W 118°13'0 0.0
2018-Jul-09 22:58N 33°45' W 118°13'0 0.0
2018-Jul-09 22:28N 33°45' W 118°13'0 0.0
2018-Jul-09 21:58N 33°45' W 118°13'0 0.0
2018-Jul-09 21:28N 33°45' W 118°13'0 0.0
2018-Jul-09 20:58N 33°45' W 118°13'0 0.0
2018-Jul-09 20:28N 33°45' W 118°13'0 0.0
2018-Jul-09 19:58N 33°45' W 118°13'0 0.0
2018-Jul-09 19:25N 33°45' W 118°13'0 0.0
2018-Jul-09 18:55N 33°45' W 118°13'0 0.0
2018-Jul-09 18:28N 33°45' W 118°13'0 0.0
2018-Jul-09 17:55N 33°45' W 118°13'0 0.0
2018-Jul-09 17:28N 33°45' W 118°13'0 0.0
2018-Jul-09 16:58N 33°45' W 118°13'0 0.0
2018-Jul-09 16:28N 33°45' W 118°13'0 0.0
2018-Jul-09 15:58N 33°45' W 118°13'0 0.0
2018-Jul-09 15:25N 33°45' W 118°13'0 0.0
2018-Jul-09 14:58N 33°45' W 118°13'0 0.0
2018-Jul-09 14:25N 33°45' W 118°13'0 0.0
2018-Jul-09 13:49N 33°45' W 118°13'0 0.0
2018-Jul-09 13:22N 33°45' W 118°13'0 0.0
2018-Jul-09 12:55N 33°45' W 118°13'0 0.0
2018-Jul-09 12:25N 33°45' W 118°13'0 0.0
2018-Jul-09 11:58N 33°45' W 118°13'0 0.0
2018-Jul-09 11:22N 33°45' W 118°13'0 0.0
2018-Jul-09 10:55N 33°45' W 118°13'0 0.0
2018-Jul-09 10:22N 33°45' W 118°13'0 0.0
2018-Jul-09 09:58N 33°45' W 118°13'0 0.0
2018-Jul-09 09:28N 33°45' W 118°13'0 0.0
2018-Jul-09 08:55N 33°45' W 118°13'0 0.0
2018-Jul-09 08:28N 33°45' W 118°13'0 0.0
2018-Jul-09 07:58N 33°45' W 118°13'0 0.0
2018-Jul-09 07:28N 33°45' W 118°13'0 0.0
2018-Jul-09 06:58N 33°45' W 118°13'0 0.0
2018-Jul-09 06:25N 33°45' W 118°13'0 0.0
2018-Jul-09 05:58N 33°45' W 118°13'0 0.0
2018-Jul-09 05:28N 33°45' W 118°13'0 0.0
2018-Jul-09 04:58N 33°45' W 118°13'0 0.0
2018-Jul-09 04:25N 33°45' W 118°13'0 0.0
2018-Jul-09 03:55N 33°45' W 118°13'0 0.0
2018-Jul-09 03:28N 33°45' W 118°13'0 0.0
2018-Jul-09 02:52N 33°45' W 118°13'0 0.0
2018-Jul-09 02:28N 33°45' W 118°13'0 0.0
2018-Jul-09 01:58N 33°45' W 118°13'0 0.0
2018-Jul-09 01:25N 33°45' W 118°13'0 0.0
2018-Jul-09 00:49N 33°45' W 118°13'0 0.0
2018-Jul-09 00:25N 33°45' W 118°13'0 0.0
2018-Jul-08 23:58N 33°45' W 118°13'0 0.0
2018-Jul-08 23:22N 33°45' W 118°13'0 0.0
2018-Jul-08 22:58N 33°45' W 118°13'0 0.0
2018-Jul-08 22:30N 33°45' W 118°13'0 0.9
2018-Jul-08 22:00N 33°45' W 118°13'2 4.1
2018-Jul-08 21:30N 33°44' W 118°11'3 6.3
2018-Jul-08 21:00N 33°40' W 118°11'3 5.4
2018-Jul-08 20:30N 33°38' W 118°11'3 5.8
2018-Jul-08 20:00N 33°36' W 118°14'5 9.1
2018-Jul-08 19:30N 33°36' W 118°19'3 6.8
2018-Jul-08 19:00N 33°36' W 118°24'3 6.4
2018-Jul-08 18:29N 33°36' W 118°28'3 6.5
2018-Jul-08 18:00N 33°36' W 118°31'3 6.6
2018-Jul-08 17:30N 33°36' W 118°35'3 6.4
2018-Jul-08 17:00N 33°36' W 118°39'3 6.2
2018-Jul-08 16:30N 33°37' W 118°43'4 7.3
2018-Jul-08 16:00N 33°37' W 118°47'4 8.9
2018-Jul-08 15:30N 33°37' W 118°53'4 8.7
2018-Jul-08 15:00N 33°38' W 118°58'4 8.8
2018-Jul-08 14:30N 33°38' W 119°03'5 9.0
2018-Jul-08 14:00N 33°38' W 119°08'5 8.9
2018-Jul-08 13:27N 33°38' W 119°14'4 9.8
2018-Jul-08 13:00N 33°38' W 119°20'611.2
2018-Jul-08 12:30N 33°38' W 119°26'611.3
2018-Jul-08 11:59N 33°38' W 119°33'611.6
2018-Jul-08 11:30N 33°38' W 119°40'611.8
2018-Jul-08 11:00N 33°38' W 119°47'611.3
2018-Jul-08 10:30N 33°38' W 119°54'611.1
2018-Jul-08 10:00N 33°38' W 120°01'611.2
2018-Jul-08 09:30N 33°38' W 120°07'610.9
2018-Jul-08 08:59N 33°38' W 120°14'611.8
2018-Jul-08 08:30N 33°38' W 120°21'611.5
2018-Jul-08 08:00N 33°38' W 120°28'  
Track history (hours):
 
Tides and Currents Weather Stations Pressure Air Temp Water Temp Dewpoint Dewpoint Depression Visibility Wind Speed Wind Dir Waves Ship Positions

Alaskan Navigator

Owner: ALASKA TANKER COMPANY, LLC, Beaverton, OR. More information available from US FCC via Universal Licensing System and Coast Guard Vessel Documentation Center.

Last reported at 2018-Jul-18 07:48 UTC. Time now 2018-Jul-18 10:13 UTC.
Position N 39°59' W 125°38'.

Type: Ship. MMSI: 367688000.

Date/timePositionNaut miles runAvg speedWind from/ knotsBaromVisibWave heightAir tempDewpointWater temp
2018-Jul-18 07:48N 39°59' W 125°38'412.7
2018-Jul-18 07:30N 39°56' W 125°36'612.5
2018-Jul-18 07:00N 39°50' W 125°33'612.2
2018-Jul-18 06:30N 39°44' W 125°30'612.2
2018-Jul-18 06:00N 39°39' W 125°27'612.1
2018-Jul-18 05:30N 39°33' W 125°24'611.5
2018-Jul-18 05:00N 39°28' W 125°21'511.0
2018-Jul-18 04:30N 39°23' W 125°18'611.2
2018-Jul-18 04:00N 39°18' W 125°15'611.2
2018-Jul-18 03:30N 39°12' W 125°13'510.9
2018-Jul-18 03:00N 39°07' W 125°10'611.1
2018-Jul-18 02:30N 39°02' W 125°07'510.9
2018-Jul-18 02:00N 38°57' W 125°04'510.9
2018-Jul-18 01:30N 38°52' W 125°02'611.0
2018-Jul-18 01:00N 38°47' W 124°59'611.1
2018-Jul-18 00:30N 38°42' W 124°56'611.2
2018-Jul-18 00:00N 38°37' W 124°53'611.4
2018-Jul-17 23:30N 38°31' W 124°51'612.4
2018-Jul-17 23:00N 38°26' W 124°47'713.6
2018-Jul-17 22:30N 38°20' W 124°44'713.8
2018-Jul-17 22:00N 38°13' W 124°41'713.9
2018-Jul-17 21:30N 38°07' W 124°37'814.2
2018-Jul-17 20:58N 37°60' W 124°33'614.1
2018-Jul-17 20:30N 37°54' W 124°30'713.7
2018-Jul-17 20:01N 37°47' W 124°27'713.5
2018-Jul-17 19:30N 37°42' W 124°22'713.5
2018-Jul-17 19:00N 37°37' W 124°17'611.3
2018-Jul-17 18:31N 37°32' W 124°12'510.4
2018-Jul-17 18:01N 37°27' W 124°10'510.5
2018-Jul-17 17:30N 37°23' W 124°07'611.7
2018-Jul-17 17:00N 37°18' W 124°02'714.1
2018-Jul-17 16:31N 37°13' W 123°56'611.9
2018-Jul-17 16:00N 37°11' W 123°49'714.8
2018-Jul-17 15:30N 37°15' W 123°41'715.0
2018-Jul-17 15:00N 37°19' W 123°33'714.7
2018-Jul-17 14:31N 37°23' W 123°25'714.3
2018-Jul-17 14:00N 37°27' W 123°18'714.1
2018-Jul-17 13:30N 37°31' W 123°10'612.6
2018-Jul-17 13:00N 37°34' W 123°04'611.7
2018-Jul-17 12:30N 37°37' W 122°58'611.7
2018-Jul-17 12:00N 37°41' W 122°51'611.8
2018-Jul-17 11:30N 37°44' W 122°45'510.2
2018-Jul-17 11:00N 37°46' W 122°39'4 8.6
2018-Jul-17 10:30N 37°47' W 122°34'510.4
2018-Jul-17 10:00N 37°50' W 122°28'4 8.9
2018-Jul-17 09:30N 37°53' W 122°25'2 4.4
2018-Jul-17 09:00N 37°55' W 122°25'0 0.2
2018-Jul-17 08:25N 37°56' W 122°25'0 0.0
2018-Jul-17 07:58N 37°56' W 122°25'0 0.0
2018-Jul-17 07:28N 37°56' W 122°25'0 0.0
2018-Jul-17 06:58N 37°56' W 122°25'0 0.0
2018-Jul-17 06:28N 37°56' W 122°25'0 0.0
2018-Jul-17 05:58N 37°56' W 122°25'0 0.0
2018-Jul-17 05:31N 37°56' W 122°25'0 0.0
2018-Jul-17 04:58N 37°56' W 122°25'0 0.0
2018-Jul-17 04:28N 37°56' W 122°25'0 0.0
2018-Jul-17 03:58N 37°56' W 122°25'0 0.0
2018-Jul-17 03:28N 37°56' W 122°25'0 0.0
2018-Jul-17 02:58N 37°56' W 122°25'0 0.0
2018-Jul-17 02:28N 37°56' W 122°25'0 0.0
2018-Jul-17 01:58N 37°56' W 122°25'0 0.0
2018-Jul-17 01:28N 37°56' W 122°25'0 0.0
2018-Jul-17 00:58N 37°56' W 122°25'0 0.0
2018-Jul-17 00:28N 37°56' W 122°25'0 0.0
2018-Jul-16 23:25N 37°56' W 122°25'0 0.0
2018-Jul-16 22:58N 37°56' W 122°25'0 0.0
2018-Jul-16 22:28N 37°56' W 122°25'0 0.0
2018-Jul-16 21:58N 37°56' W 122°25'0 0.0
2018-Jul-16 21:28N 37°56' W 122°25'0 0.0
2018-Jul-16 20:58N 37°56' W 122°25'0 0.0
2018-Jul-16 20:28N 37°56' W 122°25'0 0.0
2018-Jul-16 19:58N 37°56' W 122°25'0 0.0
2018-Jul-16 19:28N 37°56' W 122°25'0 0.0
2018-Jul-16 18:58N 37°56' W 122°25'0 0.0
2018-Jul-16 18:28N 37°56' W 122°25'0 0.0
2018-Jul-16 17:58N 37°56' W 122°25'0 0.0
2018-Jul-16 17:28N 37°56' W 122°25'0 0.0
2018-Jul-16 16:58N 37°56' W 122°25'0 0.0
2018-Jul-16 16:28N 37°56' W 122°25'0 0.0
2018-Jul-16 15:58N 37°56' W 122°25'0 0.0
2018-Jul-16 15:28N 37°56' W 122°25'0 0.0
2018-Jul-16 14:58N 37°56' W 122°25'0 0.0
2018-Jul-16 14:28N 37°56' W 122°25'0 0.0
2018-Jul-16 13:58N 37°56' W 122°25'0 0.0
2018-Jul-16 13:28N 37°56' W 122°25'0 0.0
2018-Jul-16 12:58N 37°56' W 122°25'0 0.0
2018-Jul-16 12:28N 37°56' W 122°25'0 0.0
2018-Jul-16 12:00N 37°56' W 122°25'0 1.0
2018-Jul-16 11:30N 37°55' W 122°25'4 7.9
2018-Jul-16 11:00N 37°51' W 122°24'511.0
2018-Jul-16 10:31N 37°46' W 122°22'2 3.0
2018-Jul-16 09:59N 37°45' W 122°21'0 0.1
2018-Jul-16 09:29N 37°45' W 122°21'0 0.1
2018-Jul-16 08:59N 37°45' W 122°21'0 0.0
2018-Jul-16 08:29N 37°45' W 122°21'0 0.0
2018-Jul-16 07:59N 37°45' W 122°21'0 0.0
2018-Jul-16 07:29N 37°45' W 122°21'0 0.0
2018-Jul-16 06:59N 37°45' W 122°21'0 0.0
2018-Jul-16 06:29N 37°45' W 122°21'0 0.0
2018-Jul-16 05:59N 37°45' W 122°21'0 0.1
2018-Jul-16 05:29N 37°45' W 122°21'0 0.1
2018-Jul-16 04:59N 37°45' W 122°21'0 0.2
2018-Jul-16 04:29N 37°45' W 122°21'0 0.4
2018-Jul-16 03:59N 37°45' W 122°21'0 0.1
2018-Jul-16 03:29N 37°45' W 122°21'0 0.0
2018-Jul-16 02:59N 37°45' W 122°21'0 0.0
2018-Jul-16 02:29N 37°45' W 122°21'0 0.1
2018-Jul-16 01:59N 37°45' W 122°21'0 0.1
2018-Jul-16 01:29N 37°45' W 122°21'0 0.0
2018-Jul-16 00:59N 37°45' W 122°21'0 0.0
2018-Jul-16 00:29N 37°45' W 122°21'0 0.3
2018-Jul-15 23:59N 37°45' W 122°21'0 0.2
2018-Jul-15 23:29N 37°45' W 122°21'0 0.2
2018-Jul-15 22:59N 37°45' W 122°21'0 0.1
2018-Jul-15 22:29N 37°45' W 122°21'0 0.1
2018-Jul-15 21:59N 37°45' W 122°21'0 0.0
2018-Jul-15 21:29N 37°45' W 122°21'0 0.0
2018-Jul-15 20:59N 37°45' W 122°21'0 0.0
2018-Jul-15 20:29N 37°45' W 122°21'0 0.0
2018-Jul-15 19:59N 37°45' W 122°21'0 0.0
2018-Jul-15 19:29N 37°45' W 122°21'0 0.0
2018-Jul-15 18:59N 37°45' W 122°21'0 0.0
2018-Jul-15 18:29N 37°45' W 122°21'0 0.0
2018-Jul-15 17:59N 37°45' W 122°21'0 0.0
2018-Jul-15 17:29N 37°45' W 122°21'0 0.2
2018-Jul-15 16:59N 37°45' W 122°21'0 0.4
2018-Jul-15 16:29N 37°45' W 122°21'0 0.2
2018-Jul-15 15:59N 37°45' W 122°21'0 0.1
2018-Jul-15 15:29N 37°45' W 122°21'0 0.0
2018-Jul-15 14:59N 37°45' W 122°21'0 0.0
2018-Jul-15 14:29N 37°45' W 122°21'0 0.0
2018-Jul-15 13:59N 37°45' W 122°21'0 0.0
2018-Jul-15 13:29N 37°45' W 122°21'0 0.0
2018-Jul-15 12:59N 37°45' W 122°21'0 0.0
2018-Jul-15 12:29N 37°45' W 122°21'0 0.0
2018-Jul-15 11:59N 37°45' W 122°21'0 0.0
2018-Jul-15 11:29N 37°45' W 122°21'0 0.0
2018-Jul-15 10:59N 37°45' W 122°21'0 0.0
2018-Jul-15 10:29N 37°45' W 122°21'0 0.1
2018-Jul-15 09:59N 37°45' W 122°21'0 0.4
2018-Jul-15 09:29N 37°45' W 122°21'0 0.1
2018-Jul-15 08:59N 37°45' W 122°21'0 0.0
2018-Jul-15 08:29N 37°45' W 122°21'0 0.1
2018-Jul-15 07:59N 37°45' W 122°21'0 0.0
2018-Jul-15 07:29N 37°45' W 122°21'0 0.0
2018-Jul-15 06:59N 37°45' W 122°21'0 0.1
2018-Jul-15 06:29N 37°45' W 122°21'0 0.1
2018-Jul-15 05:56N 37°45' W 122°21'0 0.0
2018-Jul-15 05:29N 37°45' W 122°21'0 0.0
2018-Jul-15 04:59N 37°45' W 122°21'0 0.1
2018-Jul-15 04:29N 37°45' W 122°21'0 0.2
2018-Jul-15 03:59N 37°45' W 122°21'0 0.2
2018-Jul-15 03:29N 37°45' W 122°21'0 0.3
2018-Jul-15 02:59N 37°45' W 122°21'0 0.1
2018-Jul-15 02:29N 37°45' W 122°21'0 0.0
2018-Jul-15 01:59N 37°45' W 122°21'0 0.0
2018-Jul-15 01:29N 37°45' W 122°21'0 0.0
2018-Jul-15 00:59N 37°45' W 122°21'0 0.0
2018-Jul-15 00:29N 37°45' W 122°21'0 0.1
2018-Jul-14 23:59N 37°45' W 122°21'0 0.0
2018-Jul-14 23:29N 37°45' W 122°21'0 0.1
2018-Jul-14 22:59N 37°45' W 122°21'0 0.4
2018-Jul-14 22:29N 37°45' W 122°21'0 0.1
2018-Jul-14 21:59N 37°45' W 122°21'0 0.1
2018-Jul-14 21:29N 37°45' W 122°21'0 0.0
2018-Jul-14 20:59N 37°45' W 122°21'0 0.0
2018-Jul-14 20:29N 37°45' W 122°21'0 0.0
2018-Jul-14 19:59N 37°45' W 122°21'0 0.0
2018-Jul-14 19:29N 37°45' W 122°21'0 0.0
2018-Jul-14 18:59N 37°45' W 122°21'0 0.1
2018-Jul-14 18:30N 37°45' W 122°21'1 1.6
2018-Jul-14 18:00N 37°45' W 122°22'4 7.5
2018-Jul-14 17:30N 37°49' W 122°24'510.5
2018-Jul-14 17:00N 37°48' W 122°30'713.2
2018-Jul-14 16:30N 37°46' W 122°38'510.9
2018-Jul-14 16:00N 37°43' W 122°44'510.2
2018-Jul-14 15:30N 37°40' W 122°49'510.0
2018-Jul-14 15:00N 37°37' W 122°54'510.0
2018-Jul-14 14:30N 37°34' W 122°60'10 9.9
2018-Jul-14 13:30N 37°29' W 123°10'5 9.5
2018-Jul-14 13:00N 37°26' W 123°15'4 8.8
2018-Jul-14 12:30N 37°24' W 123°20'4 8.5
2018-Jul-14 12:00N 37°21' W 123°24'4 7.7
2018-Jul-14 11:30N 37°18' W 123°27'4 8.0
2018-Jul-14 11:00N 37°14' W 123°26'4 8.2
2018-Jul-14 10:30N 37°10' W 123°25'4 8.1
2018-Jul-14 10:00N 37°06' W 123°25'4 7.9
2018-Jul-14 09:30N 37°02' W 123°24'4 8.0
2018-Jul-14 09:00N 36°59' W 123°23'4 8.2
2018-Jul-14 08:30N 36°54' W 123°22'4 8.0
2018-Jul-14 08:00N 36°51' W 123°21'4 8.0
2018-Jul-14 07:30N 36°47' W 123°20'4 8.3
2018-Jul-14 07:00N 36°43' W 123°19'4 8.4
2018-Jul-14 06:30N 36°38' W 123°18'4 8.3
2018-Jul-14 06:00N 36°34' W 123°17'4 8.3
2018-Jul-14 05:30N 36°30' W 123°16'4 8.3
2018-Jul-14 05:00N 36°26' W 123°15'4 8.6
2018-Jul-14 04:30N 36°22' W 123°14'4 8.7
2018-Jul-14 04:00N 36°18' W 123°13'4 7.8
2018-Jul-14 03:30N 36°14' W 123°12'4 8.3
2018-Jul-14 03:00N 36°10' W 123°12'4 8.2
2018-Jul-14 02:30N 36°06' W 123°11'4 7.9
2018-Jul-14 02:00N 36°02' W 123°10'4 7.7
2018-Jul-14 01:30N 35°58' W 123°09'4 7.5
2018-Jul-14 01:00N 35°54' W 123°08'71497.1
2018-Jul-14 01:00N 35°48' W 123°06'3 6.5 300 / 81017.510.8 15.612.516.1
2018-Jul-14 00:30N 35°51' W 123°08'4 7.4
2018-Jul-14 00:00N 35°47' W 123°07'4 7.8
2018-Jul-13 23:30N 35°43' W 123°06'4 7.9
2018-Jul-13 23:00N 35°39' W 123°05'4 8.0
2018-Jul-13 22:30N 35°36' W 123°04'4 8.3
2018-Jul-13 22:00N 35°31' W 123°03'4 8.0
2018-Jul-13 21:30N 35°28' W 123°00'4 8.1
2018-Jul-13 21:00N 35°26' W 122°57'4 8.1
2018-Jul-13 20:30N 35°23' W 122°53'4 8.2
2018-Jul-13 20:00N 35°20' W 122°49'4 8.4
2018-Jul-13 19:30N 35°17' W 122°46'5 8.9
2018-Jul-13 19:00N 35°14' W 122°42'4 8.7
2018-Jul-13 18:30N 35°11' W 122°38'4 8.8
2018-Jul-13 18:00N 35°08' W 122°34'4 8.7
2018-Jul-13 17:30N 35°05' W 122°30'4 8.8
2018-Jul-13 17:00N 35°02' W 122°27'4 8.6
2018-Jul-13 16:30N 34°59' W 122°23'4 8.7
2018-Jul-13 16:00N 34°56' W 122°19'4 9.0
2018-Jul-13 15:30N 34°53' W 122°15'611.1
2018-Jul-13 15:00N 34°49' W 122°10'611.0
2018-Jul-13 14:30N 34°45' W 122°05'1110.7
2018-Jul-13 13:30N 34°38' W 121°56'510.6
2018-Jul-13 13:00N 34°34' W 121°51'5305.3
2018-Jul-13 13:00N 34°30' W 121°48'1 2.9 300 / 81016.910.8 15.013.916.7
2018-Jul-13 12:30N 34°30' W 121°46'510.8
2018-Jul-13 12:00N 34°27' W 121°42'510.6
2018-Jul-13 11:30N 34°23' W 121°37'510.6
2018-Jul-13 11:00N 34°19' W 121°32'510.6
2018-Jul-13 10:30N 34°16' W 121°28'510.6
2018-Jul-13 10:00N 34°12' W 121°23'510.5
2018-Jul-13 09:30N 34°08' W 121°18'510.3
2018-Jul-13 09:00N 34°05' W 121°14'510.5
2018-Jul-13 08:30N 34°01' W 121°09'510.7
2018-Jul-13 08:00N 33°58' W 121°05'510.7
2018-Jul-13 07:30N 33°54' W 120°60'610.9
2018-Jul-13 06:59N 33°50' W 120°55'510.8
2018-Jul-13 06:30N 33°46' W 120°50'510.8
2018-Jul-13 06:00N 33°43' W 120°46'510.8
2018-Jul-13 05:30N 33°42' W 120°39'510.9
2018-Jul-13 05:00N 33°42' W 120°33'510.8
2018-Jul-13 04:30N 33°42' W 120°26'611.4
2018-Jul-13 04:00N 33°42' W 120°19'610.9
2018-Jul-13 03:29N 33°42' W 120°13'610.7
2018-Jul-13 02:55N 33°42' W 120°05'411.1
2018-Jul-13 02:30N 33°42' W 119°60'510.7
2018-Jul-13 02:00N 33°42' W 119°53'510.4
2018-Jul-13 01:30N 33°42' W 119°47'510.4
2018-Jul-13 01:00N 33°42' W 119°41'4268.3
2018-Jul-13 01:00N 33°42' W 119°36'1 2.5 300 / 141013.8 18.316.519.4
2018-Jul-13 00:30N 33°42' W 119°35'510.8
2018-Jul-13 00:00N 33°42' W 119°28'510.6
2018-Jul-12 23:30N 33°42' W 119°22'611.0
2018-Jul-12 23:00N 33°42' W 119°15'611.0
2018-Jul-12 22:30N 33°41' W 119°09'510.8
2018-Jul-12 22:00N 33°41' W 119°02'510.6
2018-Jul-12 21:30N 33°40' W 118°56'610.6
2018-Jul-12 20:59N 33°40' W 118°49'511.0
2018-Jul-12 20:30N 33°40' W 118°43'510.9
2018-Jul-12 20:00N 33°40' W 118°36'510.9
2018-Jul-12 19:30N 33°40' W 118°30'611.1
2018-Jul-12 19:00N 33°39' W 118°23'611.0
2018-Jul-12 18:30N 33°38' W 118°17'5 9.3
2018-Jul-12 18:00N 33°40' W 118°12'3 6.9
2018-Jul-12 17:30N 33°44' W 118°12'1 1.8
2018-Jul-12 17:00N 33°44' W 118°13'0 0.1
2018-Jul-12 16:30N 33°44' W 118°13'0 0.0
2018-Jul-12 16:00N 33°44' W 118°13'0 0.0
2018-Jul-12 15:30N 33°44' W 118°13'0 0.1
2018-Jul-12 15:00N 33°44' W 118°13'0 0.1
2018-Jul-12 14:30N 33°44' W 118°13'0 0.1
2018-Jul-12 14:00N 33°44' W 118°13'0 0.0
2018-Jul-12 13:30N 33°44' W 118°13'0 0.1
2018-Jul-12 13:00N 33°44' W 118°13'0 0.0
2018-Jul-12 12:30N 33°44' W 118°13'0 0.0
2018-Jul-12 12:00N 33°44' W 118°13'0 0.1
2018-Jul-12 11:30N 33°44' W 118°13'0 0.0
2018-Jul-12 11:00N 33°44' W 118°13'0 0.1
2018-Jul-12 10:30N 33°44' W 118°13'0 0.1
2018-Jul-12 10:00N 33°44' W 118°13'0 0.0
2018-Jul-12 09:30N 33°44' W 118°13'0 0.0
2018-Jul-12 09:00N 33°44' W 118°13'0 0.0
2018-Jul-12 08:30N 33°44' W 118°13'0 0.0
2018-Jul-12 08:00N 33°44' W 118°13'0 0.0
2018-Jul-12 07:30N 33°44' W 118°13'0 0.0
2018-Jul-12 07:00N 33°44' W 118°13'0 0.0
2018-Jul-12 06:30N 33°44' W 118°13'0 0.0
2018-Jul-12 06:00N 33°44' W 118°13'0 0.1
2018-Jul-12 05:30N 33°44' W 118°13'0 0.0
2018-Jul-12 05:00N 33°44' W 118°13'0 0.0
2018-Jul-12 04:30N 33°44' W 118°13'0 0.0
2018-Jul-12 04:00N 33°44' W 118°13'0 0.0
2018-Jul-12 03:30N 33°44' W 118°13'0 0.0
2018-Jul-12 03:00N 33°44' W 118°13'0 0.0
2018-Jul-12 02:30N 33°44' W 118°13'0 0.0
2018-Jul-12 02:00N 33°44' W 118°13'0 0.0
2018-Jul-12 01:30N 33°44' W 118°13'0 0.1
2018-Jul-12 01:00N 33°44' W 118°13'0 0.0
2018-Jul-12 00:30N 33°44' W 118°13'0 0.0
2018-Jul-12 00:00N 33°44' W 118°13'0 0.0
2018-Jul-11 23:30N 33°44' W 118°13'0 0.0
2018-Jul-11 23:00N 33°44' W 118°13'0 0.0
2018-Jul-11 22:30N 33°44' W 118°13'0 0.1
2018-Jul-11 22:00N 33°44' W 118°13'0 0.0
2018-Jul-11 21:30N 33°44' W 118°13'0 0.0
2018-Jul-11 21:00N 33°44' W 118°13'0 0.0
2018-Jul-11 20:30N 33°44' W 118°13'0 0.0
2018-Jul-11 19:57N 33°44' W 118°13'0 0.1
2018-Jul-11 19:30N 33°44' W 118°13'0 0.1
2018-Jul-11 19:00N 33°44' W 118°13'0 0.1
2018-Jul-11 18:30N 33°44' W 118°13'0 0.1
2018-Jul-11 18:00N 33°44' W 118°13'0 0.1
2018-Jul-11 17:30N 33°44' W 118°13'0 0.1
2018-Jul-11 17:00N 33°44' W 118°13'0 0.0
2018-Jul-11 16:30N 33°44' W 118°13'0 0.1
2018-Jul-11 16:00N 33°44' W 118°13'0 0.0
2018-Jul-11 15:30N 33°44' W 118°13'0 0.0
2018-Jul-11 15:00N 33°44' W 118°13'0 0.0
2018-Jul-11 14:30N 33°44' W 118°13'0 0.0
2018-Jul-11 14:00N 33°44' W 118°13'0 0.1
2018-Jul-11 13:30N 33°44' W 118°13'0 0.0
2018-Jul-11 13:00N 33°44' W 118°13'0 0.0
2018-Jul-11 12:30N 33°44' W 118°13'0 0.0
2018-Jul-11 12:00N 33°44' W 118°13'0 0.0
2018-Jul-11 11:30N 33°44' W 118°13'0 0.0
2018-Jul-11 11:00N 33°44' W 118°13'0 0.0
2018-Jul-11 10:30N 33°44' W 118°13'0 0.0
2018-Jul-11 10:00N 33°44' W 118°13'0 0.0
2018-Jul-11 09:30N 33°44' W 118°13'0 0.0
2018-Jul-11 09:00N 33°44' W 118°13'0 0.1
2018-Jul-11 08:30N 33°44' W 118°13'0 0.0
2018-Jul-11 08:00N 33°44' W 118°13'0 0.1
2018-Jul-11 07:30N 33°44' W 118°13'0 0.0
2018-Jul-11 06:57N 33°44' W 118°13'0 0.0
2018-Jul-11 06:30N 33°44' W 118°13'0 0.0
2018-Jul-11 06:00N 33°44' W 118°13'0 0.0
2018-Jul-11 05:30N 33°44' W 118°13'0 0.0
2018-Jul-11 05:00N 33°44' W 118°13'0 0.0
2018-Jul-11 04:30N 33°44' W 118°13'0 0.0
2018-Jul-11 04:00N 33°44' W 118°13'0 0.0
2018-Jul-11 03:30N 33°44' W 118°13'0 0.0
2018-Jul-11 03:00N 33°44' W 118°13'0 0.1
2018-Jul-11 02:30N 33°44' W 118°13'0 0.1
2018-Jul-11 02:00N 33°44' W 118°13'0 0.0
2018-Jul-11 01:30N 33°44' W 118°13'0 0.1
2018-Jul-11 01:00N 33°44' W 118°13'0 0.0
2018-Jul-11 00:30N 33°44' W 118°13'0 0.0
2018-Jul-11 00:00N 33°44' W 118°13'0 0.0
2018-Jul-10 23:30N 33°44' W 118°13'0 0.0
2018-Jul-10 23:00N 33°44' W 118°13'0 0.0
2018-Jul-10 22:30N 33°44' W 118°13'0 0.0
2018-Jul-10 22:00N 33°44' W 118°13'0 0.0
2018-Jul-10 21:30N 33°44' W 118°13'0 0.0
2018-Jul-10 21:00N 33°44' W 118°13'0 0.0
2018-Jul-10 20:30N 33°44' W 118°13'0 0.0
2018-Jul-10 20:00N 33°44' W 118°13'0 0.1
2018-Jul-10 19:30N 33°44' W 118°13'0 0.0
2018-Jul-10 19:00N 33°44' W 118°13'0 0.0
2018-Jul-10 18:30N 33°44' W 118°13'0 0.0
2018-Jul-10 18:00N 33°44' W 118°13'0 0.1
2018-Jul-10 17:30N 33°44' W 118°13'0 0.0
2018-Jul-10 17:00N 33°44' W 118°13'0 0.0
2018-Jul-10 16:30N 33°44' W 118°13'0 0.0
2018-Jul-10 16:00N 33°44' W 118°13'0 0.0
2018-Jul-10 15:30N 33°44' W 118°13'0 0.0
2018-Jul-10 15:00N 33°44' W 118°13'0 0.0
2018-Jul-10 14:30N 33°44' W 118°13'0 0.0
2018-Jul-10 14:00N 33°44' W 118°13'0 0.0
2018-Jul-10 13:30N 33°44' W 118°13'0 0.0
2018-Jul-10 13:00N 33°44' W 118°13'0 0.1
2018-Jul-10 12:30N 33°44' W 118°13'0 0.0
2018-Jul-10 12:00N 33°44' W 118°13'0 0.0
2018-Jul-10 11:30N 33°44' W 118°13'0 0.0
2018-Jul-10 11:00N 33°44' W 118°13'0 0.0
2018-Jul-10 10:30N 33°44' W 118°13'0 0.0
2018-Jul-10 10:00N 33°44' W 118°13'0 0.0
2018-Jul-10 09:30N 33°44' W 118°13'0 0.0
2018-Jul-10 09:00N 33°44' W 118°13'0 0.0
2018-Jul-10 08:30N 33°44' W 118°13'0 0.0
2018-Jul-10 08:00N 33°44' W 118°13'0 0.0
2018-Jul-10 07:30N 33°44' W 118°13'0 0.0
2018-Jul-10 07:00N 33°44' W 118°13'0 0.1
2018-Jul-10 06:30N 33°44' W 118°13'0 0.0
2018-Jul-10 06:00N 33°44' W 118°13'0 0.0
2018-Jul-10 05:30N 33°44' W 118°13'0 0.1
2018-Jul-10 05:00N 33°44' W 118°13'0 0.0
2018-Jul-10 04:30N 33°44' W 118°13'0 0.5
2018-Jul-10 04:00N 33°44' W 118°13'1 2.0
2018-Jul-10 03:30N 33°45' W 118°13'0 0.6
2018-Jul-10 03:00N 33°45' W 118°13'0 0.0
2018-Jul-10 02:28N 33°45' W 118°13'0 0.0
2018-Jul-10 01:58N 33°45' W 118°13'0 0.0
2018-Jul-10 01:28N 33°45' W 118°13'0 0.0
2018-Jul-10 00:58N 33°45' W 118°13'0 0.0
2018-Jul-10 00:28N 33°45' W 118°13'0 0.0
2018-Jul-09 23:55N 33°45' W 118°13'0 0.0
2018-Jul-09 23:28N 33°45' W 118°13'0 0.0
2018-Jul-09 22:58N 33°45' W 118°13'0 0.0
2018-Jul-09 22:28N 33°45' W 118°13'0 0.0
2018-Jul-09 21:58N 33°45' W 118°13'0 0.0
2018-Jul-09 21:28N 33°45' W 118°13'0 0.0
2018-Jul-09 20:58N 33°45' W 118°13'0 0.0
2018-Jul-09 20:28N 33°45' W 118°13'0 0.0
2018-Jul-09 19:58N 33°45' W 118°13'0 0.0
2018-Jul-09 19:25N 33°45' W 118°13'0 0.0
2018-Jul-09 18:55N 33°45' W 118°13'0 0.0
2018-Jul-09 18:28N 33°45' W 118°13'0 0.0
2018-Jul-09 17:55N 33°45' W 118°13'0 0.0
2018-Jul-09 17:28N 33°45' W 118°13'0 0.0
2018-Jul-09 16:58N 33°45' W 118°13'0 0.0
2018-Jul-09 16:28N 33°45' W 118°13'0 0.0
2018-Jul-09 15:58N 33°45' W 118°13'0 0.0
2018-Jul-09 15:25N 33°45' W 118°13'0 0.0
2018-Jul-09 14:58N 33°45' W 118°13'0 0.0
2018-Jul-09 14:25N 33°45' W 118°13'0 0.0
2018-Jul-09 13:49N 33°45' W 118°13'0 0.0
2018-Jul-09 13:22N 33°45' W 118°13'0 0.0
2018-Jul-09 12:55N 33°45' W 118°13'0 0.0
2018-Jul-09 12:25N 33°45' W 118°13'0 0.0
2018-Jul-09 11:58N 33°45' W 118°13'0 0.0
2018-Jul-09 11:22N 33°45' W 118°13'0 0.0
2018-Jul-09 10:55N 33°45' W 118°13'0 0.0
2018-Jul-09 10:22N 33°45' W 118°13'0 0.0
2018-Jul-09 09:58N 33°45' W 118°13'0 0.0
2018-Jul-09 09:28N 33°45' W 118°13'0 0.0
2018-Jul-09 08:55N 33°45' W 118°13'0 0.0
2018-Jul-09 08:28N 33°45' W 118°13'0 0.0
2018-Jul-09 07:58N 33°45' W 118°13'0 0.0
2018-Jul-09 07:28N 33°45' W 118°13'0 0.0
2018-Jul-09 06:58N 33°45' W 118°13'0 0.0
2018-Jul-09 06:25N 33°45' W 118°13'0 0.0
2018-Jul-09 05:58N 33°45' W 118°13'0 0.0
2018-Jul-09 05:28N 33°45' W 118°13'0 0.0
2018-Jul-09 04:58N 33°45' W 118°13'0 0.0
2018-Jul-09 04:25N 33°45' W 118°13'0 0.0
2018-Jul-09 03:55N 33°45' W 118°13'0 0.0
2018-Jul-09 03:28N 33°45' W 118°13'0 0.0
2018-Jul-09 02:52N 33°45' W 118°13'0 0.0
2018-Jul-09 02:28N 33°45' W 118°13'0 0.0
2018-Jul-09 01:58N 33°45' W 118°13'0 0.0
2018-Jul-09 01:25N 33°45' W 118°13'0 0.0
2018-Jul-09 00:49N 33°45' W 118°13'0 0.0
2018-Jul-09 00:25N 33°45' W 118°13'0 0.0
2018-Jul-08 23:58N 33°45' W 118°13'0 0.0
2018-Jul-08 23:22N 33°45' W 118°13'0 0.0
2018-Jul-08 22:58N 33°45' W 118°13'0 0.0
2018-Jul-08 22:30N 33°45' W 118°13'0 0.9
2018-Jul-08 22:00N 33°45' W 118°13'2 4.1
2018-Jul-08 21:30N 33°44' W 118°11'3 6.3
2018-Jul-08 21:00N 33°40' W 118°11'3 5.4
2018-Jul-08 20:30N 33°38' W 118°11'3 5.8
2018-Jul-08 20:00N 33°36' W 118°14'5 9.1
2018-Jul-08 19:30N 33°36' W 118°19'3 6.8
2018-Jul-08 19:00N 33°36' W 118°24'3 6.4
2018-Jul-08 18:29N 33°36' W 118°28'3 6.5
2018-Jul-08 18:00N 33°36' W 118°31'3 6.6
2018-Jul-08 17:30N 33°36' W 118°35'3 6.4
2018-Jul-08 17:00N 33°36' W 118°39'3 6.2
2018-Jul-08 16:30N 33°37' W 118°43'4 7.3
2018-Jul-08 16:00N 33°37' W 118°47'4 8.9
2018-Jul-08 15:30N 33°37' W 118°53'4 8.7
2018-Jul-08 15:00N 33°38' W 118°58'4 8.8
2018-Jul-08 14:30N 33°38' W 119°03'5 9.0
2018-Jul-08 14:00N 33°38' W 119°08'5 8.9
2018-Jul-08 13:27N 33°38' W 119°14'4 9.8
2018-Jul-08 13:00N 33°38' W 119°20'611.2
2018-Jul-08 12:30N 33°38' W 119°26'611.3
2018-Jul-08 11:59N 33°38' W 119°33'611.6
2018-Jul-08 11:30N 33°38' W 119°40'611.8
2018-Jul-08 11:00N 33°38' W 119°47'611.3
2018-Jul-08 10:30N 33°38' W 119°54'611.1
2018-Jul-08 10:00N 33°38' W 120°01'611.2
2018-Jul-08 09:30N 33°38' W 120°07'610.9
2018-Jul-08 08:59N 33°38' W 120°14'611.8
2018-Jul-08 08:30N 33°38' W 120°21'611.5
2018-Jul-08 08:00N 33°38' W 120°28'  

Dump ship's entire track history